sensor_id;sensor_type;location;lat;lon;timestamp;P1;durP1;ratioP1;P2;durP2;ratioP2
65463;SDS011;52063;45.110;9.870;2023-07-24T00:00:10;14.48;;;10.10;;
65463;SDS011;52063;45.110;9.870;2023-07-24T00:02:36;13.60;;;9.10;;
65463;SDS011;52063;45.110;9.870;2023-07-24T00:05:01;13.82;;;9.70;;
65463;SDS011;52063;45.110;9.870;2023-07-24T00:07:27;12.83;;;9.77;;
65463;SDS011;52063;45.110;9.870;2023-07-24T00:09:52;13.97;;;8.60;;
65463;SDS011;52063;45.110;9.870;2023-07-24T00:12:18;12.98;;;9.73;;
65463;SDS011;52063;45.110;9.870;2023-07-24T00:14:43;12.87;;;9.97;;
65463;SDS011;52063;45.110;9.870;2023-07-24T00:17:09;12.03;;;9.43;;
65463;SDS011;52063;45.110;9.870;2023-07-24T00:19:34;16.30;;;10.68;;
65463;SDS011;52063;45.110;9.870;2023-07-24T00:22:00;15.27;;;10.33;;
65463;SDS011;52063;45.110;9.870;2023-07-24T00:24:25;14.13;;;10.43;;
65463;SDS011;52063;45.110;9.870;2023-07-24T00:26:51;15.40;;;11.00;;
65463;SDS011;52063;45.110;9.870;2023-07-24T00:29:17;17.07;;;10.80;;
65463;SDS011;52063;45.110;9.870;2023-07-24T00:31:42;15.93;;;10.82;;
65463;SDS011;52063;45.110;9.870;2023-07-24T00:34:08;14.47;;;10.43;;
65463;SDS011;52063;45.110;9.870;2023-07-24T00:36:33;14.13;;;9.17;;
65463;SDS011;52063;45.110;9.870;2023-07-24T00:38:59;14.33;;;10.63;;
65463;SDS011;52063;45.110;9.870;2023-07-24T00:41:24;16.60;;;10.77;;
65463;SDS011;52063;45.110;9.870;2023-07-24T00:43:50;13.87;;;9.47;;
65463;SDS011;52063;45.110;9.870;2023-07-24T00:46:15;11.63;;;9.50;;
65463;SDS011;52063;45.110;9.870;2023-07-24T00:48:40;16.87;;;10.37;;
65463;SDS011;52063;45.110;9.870;2023-07-24T00:51:06;14.70;;;9.30;;
65463;SDS011;52063;45.110;9.870;2023-07-24T00:53:33;13.55;;;9.45;;
65463;SDS011;52063;45.110;9.870;2023-07-24T00:55:58;14.87;;;10.20;;
65463;SDS011;52063;45.110;9.870;2023-07-24T00:58:26;14.20;;;10.30;;
65463;SDS011;52063;45.110;9.870;2023-07-24T01:00:51;13.43;;;9.38;;
65463;SDS011;52063;45.110;9.870;2023-07-24T01:03:17;14.70;;;10.30;;
65463;SDS011;52063;45.110;9.870;2023-07-24T01:05:42;14.00;;;9.47;;
65463;SDS011;52063;45.110;9.870;2023-07-24T01:08:08;15.65;;;10.50;;
65463;SDS011;52063;45.110;9.870;2023-07-24T01:10:33;14.83;;;10.37;;
65463;SDS011;52063;45.110;9.870;2023-07-24T01:13:05;13.95;;;10.27;;
65463;SDS011;52063;45.110;9.870;2023-07-24T01:15:36;19.20;;;10.52;;
65463;SDS011;52063;45.110;9.870;2023-07-24T01:18:06;20.33;;;11.03;;
65463;SDS011;52063;45.110;9.870;2023-07-24T01:20:34;21.35;;;11.40;;
65463;SDS011;52063;45.110;9.870;2023-07-24T01:23:04;18.77;;;12.00;;
65463;SDS011;52063;45.110;9.870;2023-07-24T01:25:52;16.92;;;11.30;;
65463;SDS011;52063;45.110;9.870;2023-07-24T01:28:19;17.20;;;11.05;;
65463;SDS011;52063;45.110;9.870;2023-07-24T01:30:45;18.70;;;11.17;;
65463;SDS011;52063;45.110;9.870;2023-07-24T01:33:10;15.50;;;11.00;;
65463;SDS011;52063;45.110;9.870;2023-07-24T01:35:37;16.00;;;10.32;;
65463;SDS011;52063;45.110;9.870;2023-07-24T01:38:03;14.10;;;10.35;;
65463;SDS011;52063;45.110;9.870;2023-07-24T01:40:29;17.42;;;11.18;;
65463;SDS011;52063;45.110;9.870;2023-07-24T01:42:54;15.93;;;10.60;;
65463;SDS011;52063;45.110;9.870;2023-07-24T01:45:20;20.27;;;11.70;;
65463;SDS011;52063;45.110;9.870;2023-07-24T01:47:45;19.60;;;11.60;;
65463;SDS011;52063;45.110;9.870;2023-07-24T01:50:11;19.53;;;11.50;;
65463;SDS011;52063;45.110;9.870;2023-07-24T01:52:37;17.65;;;11.75;;
65463;SDS011;52063;45.110;9.870;2023-07-24T01:55:03;22.27;;;12.27;;
65463;SDS011;52063;45.110;9.870;2023-07-24T01:57:29;18.60;;;11.80;;
65463;SDS011;52063;45.110;9.870;2023-07-24T01:59:54;14.83;;;10.57;;
65463;SDS011;52063;45.110;9.870;2023-07-24T02:02:20;13.15;;;10.18;;
65463;SDS011;52063;45.110;9.870;2023-07-24T02:04:46;13.80;;;8.63;;
65463;SDS011;52063;45.110;9.870;2023-07-24T02:07:11;11.88;;;8.98;;
65463;SDS011;52063;45.110;9.870;2023-07-24T02:09:37;14.10;;;10.20;;
65463;SDS011;52063;45.110;9.870;2023-07-24T02:12:02;13.57;;;8.93;;
65463;SDS011;52063;45.110;9.870;2023-07-24T02:14:28;9.32;;;7.68;;
65463;SDS011;52063;45.110;9.870;2023-07-24T02:16:53;10.70;;;7.37;;
65463;SDS011;52063;45.110;9.870;2023-07-24T02:19:19;12.10;;;8.13;;
65463;SDS011;52063;45.110;9.870;2023-07-24T02:21:44;10.75;;;7.70;;
65463;SDS011;52063;45.110;9.870;2023-07-24T02:24:09;11.57;;;8.20;;
65463;SDS011;52063;45.110;9.870;2023-07-24T02:26:35;10.80;;;8.30;;
65463;SDS011;52063;45.110;9.870;2023-07-24T02:29:01;11.25;;;8.07;;
65463;SDS011;52063;45.110;9.870;2023-07-24T02:31:27;9.77;;;7.57;;
65463;SDS011;52063;45.110;9.870;2023-07-24T02:33:52;10.73;;;7.67;;
65463;SDS011;52063;45.110;9.870;2023-07-24T02:36:19;9.83;;;8.10;;
65463;SDS011;52063;45.110;9.870;2023-07-24T02:38:45;10.65;;;8.30;;
65463;SDS011;52063;45.110;9.870;2023-07-24T02:41:10;10.97;;;8.43;;
65463;SDS011;52063;45.110;9.870;2023-07-24T02:43:35;10.63;;;8.27;;
65463;SDS011;52063;45.110;9.870;2023-07-24T02:46:01;14.60;;;8.82;;
65463;SDS011;52063;45.110;9.870;2023-07-24T02:48:27;13.27;;;9.60;;
65463;SDS011;52063;45.110;9.870;2023-07-24T02:50:53;13.17;;;9.40;;
65463;SDS011;52063;45.110;9.870;2023-07-24T02:53:18;12.32;;;8.57;;
65463;SDS011;52063;45.110;9.870;2023-07-24T02:55:44;13.07;;;8.30;;
65463;SDS011;52063;45.110;9.870;2023-07-24T02:58:10;11.17;;;8.43;;
65463;SDS011;52063;45.110;9.870;2023-07-24T03:00:37;15.13;;;9.32;;
65463;SDS011;52063;45.110;9.870;2023-07-24T03:03:03;15.00;;;9.15;;
65463;SDS011;52063;45.110;9.870;2023-07-24T03:05:28;16.17;;;10.20;;
65463;SDS011;52063;45.110;9.870;2023-07-24T03:07:54;14.63;;;10.13;;
65463;SDS011;52063;45.110;9.870;2023-07-24T03:10:19;15.55;;;11.30;;
65463;SDS011;52063;45.110;9.870;2023-07-24T03:12:45;14.17;;;9.80;;
65463;SDS011;52063;45.110;9.870;2023-07-24T03:15:11;18.17;;;11.13;;
65463;SDS011;52063;45.110;9.870;2023-07-24T03:17:36;12.67;;;9.90;;
65463;SDS011;52063;45.110;9.870;2023-07-24T03:20:09;16.37;;;11.17;;
65463;SDS011;52063;45.110;9.870;2023-07-24T03:22:42;15.93;;;11.50;;
65463;SDS011;52063;45.110;9.870;2023-07-24T03:25:07;19.33;;;11.43;;
65463;SDS011;52063;45.110;9.870;2023-07-24T03:27:33;19.17;;;11.87;;
65463;SDS011;52063;45.110;9.870;2023-07-24T03:29:58;17.93;;;11.63;;
65463;SDS011;52063;45.110;9.870;2023-07-24T03:32:25;26.33;;;11.15;;
65463;SDS011;52063;45.110;9.870;2023-07-24T03:34:50;18.87;;;11.47;;
65463;SDS011;52063;45.110;9.870;2023-07-24T03:37:16;18.87;;;11.60;;
65463;SDS011;52063;45.110;9.870;2023-07-24T03:39:41;18.67;;;11.27;;
65463;SDS011;52063;45.110;9.870;2023-07-24T03:42:09;15.87;;;10.60;;
65463;SDS011;52063;45.110;9.870;2023-07-24T03:44:35;15.45;;;10.40;;
65463;SDS011;52063;45.110;9.870;2023-07-24T03:47:00;16.93;;;9.83;;
65463;SDS011;52063;45.110;9.870;2023-07-24T03:49:25;16.20;;;9.97;;
65463;SDS011;52063;45.110;9.870;2023-07-24T03:51:51;17.00;;;10.57;;
65463;SDS011;52063;45.110;9.870;2023-07-24T03:54:16;17.93;;;11.43;;
65463;SDS011;52063;45.110;9.870;2023-07-24T03:56:42;14.77;;;10.13;;
65463;SDS011;52063;45.110;9.870;2023-07-24T03:59:07;17.70;;;10.52;;
65463;SDS011;52063;45.110;9.870;2023-07-24T04:01:33;16.73;;;10.30;;
65463;SDS011;52063;45.110;9.870;2023-07-24T04:03:58;15.90;;;10.60;;
65463;SDS011;52063;45.110;9.870;2023-07-24T04:06:24;15.40;;;11.00;;
65463;SDS011;52063;45.110;9.870;2023-07-24T04:08:49;13.23;;;9.70;;
65463;SDS011;52063;45.110;9.870;2023-07-24T04:11:15;16.13;;;10.83;;
65463;SDS011;52063;45.110;9.870;2023-07-24T04:13:40;16.05;;;10.68;;
65463;SDS011;52063;45.110;9.870;2023-07-24T04:16:05;19.90;;;11.40;;
65463;SDS011;52063;45.110;9.870;2023-07-24T04:18:31;20.23;;;12.73;;
65463;SDS011;52063;45.110;9.870;2023-07-24T04:20:56;18.37;;;11.20;;
65463;SDS011;52063;45.110;9.870;2023-07-24T04:23:22;17.13;;;10.25;;
65463;SDS011;52063;45.110;9.870;2023-07-24T04:25:49;13.10;;;10.17;;
65463;SDS011;52063;45.110;9.870;2023-07-24T04:28:15;16.05;;;10.75;;
65463;SDS011;52063;45.110;9.870;2023-07-24T04:30:40;15.90;;;11.27;;
65463;SDS011;52063;45.110;9.870;2023-07-24T04:33:06;20.20;;;11.30;;
65463;SDS011;52063;45.110;9.870;2023-07-24T04:35:31;20.73;;;12.00;;
65463;SDS011;52063;45.110;9.870;2023-07-24T04:37:57;21.13;;;12.23;;
65463;SDS011;52063;45.110;9.870;2023-07-24T04:40:23;18.33;;;12.60;;
65463;SDS011;52063;45.110;9.870;2023-07-24T04:42:49;19.27;;;12.43;;
65463;SDS011;52063;45.110;9.870;2023-07-24T04:45:14;18.75;;;12.15;;
65463;SDS011;52063;45.110;9.870;2023-07-24T04:47:40;20.23;;;13.03;;
65463;SDS011;52063;45.110;9.870;2023-07-24T04:50:05;18.00;;;12.70;;
65463;SDS011;52063;45.110;9.870;2023-07-24T04:52:31;17.13;;;11.70;;
65463;SDS011;52063;45.110;9.870;2023-07-24T04:54:56;17.10;;;11.60;;
65463;SDS011;52063;45.110;9.870;2023-07-24T04:57:22;17.55;;;11.55;;
65463;SDS011;52063;45.110;9.870;2023-07-24T04:59:47;16.30;;;12.13;;
65463;SDS011;52063;45.110;9.870;2023-07-24T05:02:13;21.23;;;12.73;;
65463;SDS011;52063;45.110;9.870;2023-07-24T05:04:38;18.50;;;11.52;;
65463;SDS011;52063;45.110;9.870;2023-07-24T05:07:04;16.67;;;11.30;;
65463;SDS011;52063;45.110;9.870;2023-07-24T05:09:31;17.85;;;11.68;;
65463;SDS011;52063;45.110;9.870;2023-07-24T05:11:56;18.50;;;11.87;;
65463;SDS011;52063;45.110;9.870;2023-07-24T05:14:21;15.73;;;11.03;;
65463;SDS011;52063;45.110;9.870;2023-07-24T05:16:47;17.40;;;12.20;;
65463;SDS011;52063;45.110;9.870;2023-07-24T05:19:12;21.97;;;12.40;;
65463;SDS011;52063;45.110;9.870;2023-07-24T05:21:38;23.40;;;12.63;;
65463;SDS011;52063;45.110;9.870;2023-07-24T05:24:03;19.83;;;12.17;;
65463;SDS011;52063;45.110;9.870;2023-07-24T05:26:29;19.67;;;11.45;;
65463;SDS011;52063;45.110;9.870;2023-07-24T05:28:54;20.00;;;11.47;;
65463;SDS011;52063;45.110;9.870;2023-07-24T05:31:20;20.13;;;11.63;;
65463;SDS011;52063;45.110;9.870;2023-07-24T05:33:45;19.25;;;12.23;;
65463;SDS011;52063;45.110;9.870;2023-07-24T05:36:11;21.30;;;12.30;;
65463;SDS011;52063;45.110;9.870;2023-07-24T05:38:36;17.20;;;11.80;;
65463;SDS011;52063;45.110;9.870;2023-07-24T05:41:02;22.87;;;12.43;;
65463;SDS011;52063;45.110;9.870;2023-07-24T05:43:28;18.03;;;12.13;;
65463;SDS011;52063;45.110;9.870;2023-07-24T05:45:55;24.25;;;13.82;;
65463;SDS011;52063;45.110;9.870;2023-07-24T05:48:22;21.55;;;13.05;;
65463;SDS011;52063;45.110;9.870;2023-07-24T05:50:47;22.95;;;12.88;;
65463;SDS011;52063;45.110;9.870;2023-07-24T05:53:13;23.97;;;12.27;;
65463;SDS011;52063;45.110;9.870;2023-07-24T05:55:39;18.83;;;12.70;;
65463;SDS011;52063;45.110;9.870;2023-07-24T05:58:05;20.90;;;12.37;;
65463;SDS011;52063;45.110;9.870;2023-07-24T06:00:30;19.33;;;12.40;;
65463;SDS011;52063;45.110;9.870;2023-07-24T06:02:56;24.17;;;13.47;;
65463;SDS011;52063;45.110;9.870;2023-07-24T06:05:21;21.10;;;12.17;;
65463;SDS011;52063;45.110;9.870;2023-07-24T06:07:47;18.23;;;12.48;;
65463;SDS011;52063;45.110;9.870;2023-07-24T06:10:12;20.07;;;11.50;;
65463;SDS011;52063;45.110;9.870;2023-07-24T06:12:38;24.23;;;13.65;;
65463;SDS011;52063;45.110;9.870;2023-07-24T06:15:04;25.27;;;14.67;;
65463;SDS011;52063;45.110;9.870;2023-07-24T06:17:30;20.23;;;14.25;;
65463;SDS011;52063;45.110;9.870;2023-07-24T06:19:55;23.30;;;15.17;;
65463;SDS011;52063;45.110;9.870;2023-07-24T06:22:21;22.55;;;14.65;;
65463;SDS011;52063;45.110;9.870;2023-07-24T06:24:46;21.30;;;14.33;;
65463;SDS011;52063;45.110;9.870;2023-07-24T06:27:12;22.37;;;14.07;;
65463;SDS011;52063;45.110;9.870;2023-07-24T06:29:37;26.63;;;15.07;;
65463;SDS011;52063;45.110;9.870;2023-07-24T06:32:03;24.97;;;14.90;;
65463;SDS011;52063;45.110;9.870;2023-07-24T06:34:28;27.10;;;14.90;;
65463;SDS011;52063;45.110;9.870;2023-07-24T06:36:54;21.67;;;13.83;;
65463;SDS011;52063;45.110;9.870;2023-07-24T06:39:19;25.17;;;14.23;;
65463;SDS011;52063;45.110;9.870;2023-07-24T06:41:45;21.55;;;13.32;;
65463;SDS011;52063;45.110;9.870;2023-07-24T06:44:11;19.83;;;12.40;;
65463;SDS011;52063;45.110;9.870;2023-07-24T06:46:36;20.00;;;12.63;;
65463;SDS011;52063;45.110;9.870;2023-07-24T06:49:02;16.53;;;12.53;;
65463;SDS011;52063;45.110;9.870;2023-07-24T06:51:27;20.83;;;11.97;;
65463;SDS011;52063;45.110;9.870;2023-07-24T06:53:53;17.47;;;11.40;;
65463;SDS011;52063;45.110;9.870;2023-07-24T06:56:18;20.33;;;12.00;;
65463;SDS011;52063;45.110;9.870;2023-07-24T06:58:44;14.60;;;10.97;;
65463;SDS011;52063;45.110;9.870;2023-07-24T07:01:09;17.60;;;11.37;;
65463;SDS011;52063;45.110;9.870;2023-07-24T07:03:34;18.10;;;10.93;;
65463;SDS011;52063;45.110;9.870;2023-07-24T07:06:00;16.83;;;11.53;;
65463;SDS011;52063;45.110;9.870;2023-07-24T07:08:26;18.02;;;11.15;;
65463;SDS011;52063;45.110;9.870;2023-07-24T07:10:59;15.30;;;10.87;;
65463;SDS011;52063;45.110;9.870;2023-07-24T07:13:25;20.35;;;11.52;;
65463;SDS011;52063;45.110;9.870;2023-07-24T07:15:51;19.20;;;12.48;;
65463;SDS011;52063;45.110;9.870;2023-07-24T07:18:17;21.33;;;11.40;;
65463;SDS011;52063;45.110;9.870;2023-07-24T07:20:49;20.60;;;12.38;;
65463;SDS011;52063;45.110;9.870;2023-07-24T07:23:15;21.10;;;11.70;;
65463;SDS011;52063;45.110;9.870;2023-07-24T07:25:40;21.15;;;12.13;;
65463;SDS011;52063;45.110;9.870;2023-07-24T07:28:08;21.55;;;12.48;;
65463;SDS011;52063;45.110;9.870;2023-07-24T07:30:34;17.50;;;11.73;;
65463;SDS011;52063;45.110;9.870;2023-07-24T07:32:59;18.00;;;11.17;;
65463;SDS011;52063;45.110;9.870;2023-07-24T07:35:24;18.00;;;11.77;;
65463;SDS011;52063;45.110;9.870;2023-07-24T07:37:50;18.13;;;11.60;;
65463;SDS011;52063;45.110;9.870;2023-07-24T07:40:15;18.53;;;11.37;;
65463;SDS011;52063;45.110;9.870;2023-07-24T07:42:41;19.17;;;10.35;;
65463;SDS011;52063;45.110;9.870;2023-07-24T07:45:06;16.17;;;11.33;;
65463;SDS011;52063;45.110;9.870;2023-07-24T07:47:32;19.63;;;11.10;;
65463;SDS011;52063;45.110;9.870;2023-07-24T07:49:58;19.53;;;10.63;;
65463;SDS011;52063;45.110;9.870;2023-07-24T07:52:23;16.20;;;10.60;;
65463;SDS011;52063;45.110;9.870;2023-07-24T07:54:49;17.00;;;10.87;;
65463;SDS011;52063;45.110;9.870;2023-07-24T07:57:14;22.00;;;10.87;;
65463;SDS011;52063;45.110;9.870;2023-07-24T07:59:40;22.40;;;11.25;;
65463;SDS011;52063;45.110;9.870;2023-07-24T08:02:06;14.33;;;10.03;;
65463;SDS011;52063;45.110;9.870;2023-07-24T08:04:32;21.95;;;11.48;;
65463;SDS011;52063;45.110;9.870;2023-07-24T08:06:57;17.67;;;10.60;;
65463;SDS011;52063;45.110;9.870;2023-07-24T08:09:23;18.60;;;11.43;;
65463;SDS011;52063;45.110;9.870;2023-07-24T08:11:49;23.08;;;10.93;;
65463;SDS011;52063;45.110;9.870;2023-07-24T08:14:16;26.77;;;10.90;;
65463;SDS011;52063;45.110;9.870;2023-07-24T08:16:42;18.10;;;10.73;;
65463;SDS011;52063;45.110;9.870;2023-07-24T08:19:07;18.00;;;10.90;;
65463;SDS011;52063;45.110;9.870;2023-07-24T08:21:33;21.60;;;11.35;;
65463;SDS011;52063;45.110;9.870;2023-07-24T08:23:58;16.97;;;10.33;;
65463;SDS011;52063;45.110;9.870;2023-07-24T08:26:25;17.00;;;10.50;;
65463;SDS011;52063;45.110;9.870;2023-07-24T08:28:51;16.60;;;11.00;;
65463;SDS011;52063;45.110;9.870;2023-07-24T08:31:17;18.45;;;11.27;;
65463;SDS011;52063;45.110;9.870;2023-07-24T08:33:42;18.75;;;11.23;;
65463;SDS011;52063;45.110;9.870;2023-07-24T08:36:08;18.53;;;11.07;;
65463;SDS011;52063;45.110;9.870;2023-07-24T08:38:34;18.27;;;13.10;;
65463;SDS011;52063;45.110;9.870;2023-07-24T08:41:10;19.48;;;12.68;;
65463;SDS011;52063;45.110;9.870;2023-07-24T08:43:37;20.42;;;12.18;;
65463;SDS011;52063;45.110;9.870;2023-07-24T08:46:05;17.63;;;11.82;;
65463;SDS011;52063;45.110;9.870;2023-07-24T08:48:35;24.83;;;12.95;;
65463;SDS011;52063;45.110;9.870;2023-07-24T08:51:05;21.23;;;11.90;;
65463;SDS011;52063;45.110;9.870;2023-07-24T08:53:35;20.33;;;12.63;;
65463;SDS011;52063;45.110;9.870;2023-07-24T08:56:02;21.88;;;13.48;;
65463;SDS011;52063;45.110;9.870;2023-07-24T08:58:28;23.95;;;15.32;;
65463;SDS011;52063;45.110;9.870;2023-07-24T09:00:55;25.10;;;14.43;;
65463;SDS011;52063;45.110;9.870;2023-07-24T09:03:21;28.27;;;16.27;;
65463;SDS011;52063;45.110;9.870;2023-07-24T09:05:47;29.20;;;18.50;;
65463;SDS011;52063;45.110;9.870;2023-07-24T09:08:13;33.38;;;20.33;;
65463;SDS011;52063;45.110;9.870;2023-07-24T09:10:39;28.77;;;19.10;;
65463;SDS011;52063;45.110;9.870;2023-07-24T09:13:04;33.00;;;18.80;;
65463;SDS011;52063;45.110;9.870;2023-07-24T09:15:39;28.60;;;17.07;;
65463;SDS011;52063;45.110;9.870;2023-07-24T09:18:06;34.08;;;19.27;;
65463;SDS011;52063;45.110;9.870;2023-07-24T09:20:37;25.33;;;16.33;;
65463;SDS011;52063;45.110;9.870;2023-07-24T09:23:04;33.75;;;16.92;;
65463;SDS011;52063;45.110;9.870;2023-07-24T09:25:30;26.03;;;14.87;;
65463;SDS011;52063;45.110;9.870;2023-07-24T09:27:57;26.00;;;15.32;;
65463;SDS011;52063;45.110;9.870;2023-07-24T09:30:23;29.05;;;16.10;;
65463;SDS011;52063;45.110;9.870;2023-07-24T09:32:55;28.63;;;15.27;;
65463;SDS011;52063;45.110;9.870;2023-07-24T09:35:21;25.90;;;15.90;;
65463;SDS011;52063;45.110;9.870;2023-07-24T09:38:00;22.25;;;14.48;;
65463;SDS011;52063;45.110;9.870;2023-07-24T09:40:45;24.50;;;15.05;;
65463;SDS011;52063;45.110;9.870;2023-07-24T09:43:19;23.65;;;15.15;;
65463;SDS011;52063;45.110;9.870;2023-07-24T09:45:46;26.37;;;15.13;;
65463;SDS011;52063;45.110;9.870;2023-07-24T09:48:13;23.58;;;14.55;;
65463;SDS011;52063;45.110;9.870;2023-07-24T09:50:44;22.65;;;14.60;;
65463;SDS011;52063;45.110;9.870;2023-07-24T09:53:22;22.83;;;15.13;;
65463;SDS011;52063;45.110;9.870;2023-07-24T09:56:00;23.65;;;14.18;;
65463;SDS011;52063;45.110;9.870;2023-07-24T09:58:28;24.27;;;15.17;;
65463;SDS011;52063;45.110;9.870;2023-07-24T10:00:53;24.23;;;15.25;;
65463;SDS011;52063;45.110;9.870;2023-07-24T10:03:19;23.63;;;14.63;;
65463;SDS011;52063;45.110;9.870;2023-07-24T10:05:47;23.65;;;14.20;;
65463;SDS011;52063;45.110;9.870;2023-07-24T10:08:16;23.33;;;14.65;;
65463;SDS011;52063;45.110;9.870;2023-07-24T10:10:45;24.52;;;15.10;;
65463;SDS011;52063;45.110;9.870;2023-07-24T10:13:11;26.33;;;14.70;;
65463;SDS011;52063;45.110;9.870;2023-07-24T10:15:42;20.07;;;13.43;;
65463;SDS011;52063;45.110;9.870;2023-07-24T10:18:08;22.17;;;13.75;;
65463;SDS011;52063;45.110;9.870;2023-07-24T10:20:34;22.25;;;14.38;;
65463;SDS011;52063;45.110;9.870;2023-07-24T10:23:01;20.50;;;14.38;;
65463;SDS011;52063;45.110;9.870;2023-07-24T10:25:35;21.20;;;12.60;;
65463;SDS011;52063;45.110;9.870;2023-07-24T10:28:02;24.17;;;12.83;;
65463;SDS011;52063;45.110;9.870;2023-07-24T10:30:35;20.48;;;12.18;;
65463;SDS011;52063;45.110;9.870;2023-07-24T10:33:05;18.65;;;12.77;;
65463;SDS011;52063;45.110;9.870;2023-07-24T10:35:42;23.13;;;13.07;;
65463;SDS011;52063;45.110;9.870;2023-07-24T10:38:16;16.88;;;11.98;;
65463;SDS011;52063;45.110;9.870;2023-07-24T10:40:43;21.80;;;12.67;;
65463;SDS011;52063;45.110;9.870;2023-07-24T10:43:14;19.42;;;12.10;;
65463;SDS011;52063;45.110;9.870;2023-07-24T10:45:50;21.95;;;12.73;;
65463;SDS011;52063;45.110;9.870;2023-07-24T10:48:17;23.13;;;12.18;;
65463;SDS011;52063;45.110;9.870;2023-07-24T10:50:45;18.38;;;11.85;;
65463;SDS011;52063;45.110;9.870;2023-07-24T10:53:13;19.90;;;11.83;;
65463;SDS011;52063;45.110;9.870;2023-07-24T10:55:41;17.45;;;10.90;;
65463;SDS011;52063;45.110;9.870;2023-07-24T10:58:07;17.40;;;10.93;;
65463;SDS011;52063;45.110;9.870;2023-07-24T11:00:33;16.65;;;11.30;;
65463;SDS011;52063;45.110;9.870;2023-07-24T11:02:59;17.43;;;11.67;;
65463;SDS011;52063;45.110;9.870;2023-07-24T11:05:24;19.00;;;11.18;;
65463;SDS011;52063;45.110;9.870;2023-07-24T11:07:50;15.43;;;11.17;;
65463;SDS011;52063;45.110;9.870;2023-07-24T11:10:18;18.17;;;11.83;;
65463;SDS011;52063;45.110;9.870;2023-07-24T11:12:45;15.18;;;10.73;;
65463;SDS011;52063;45.110;9.870;2023-07-24T11:15:11;15.73;;;11.00;;
65463;SDS011;52063;45.110;9.870;2023-07-24T11:17:37;16.88;;;11.10;;
65463;SDS011;52063;45.110;9.870;2023-07-24T11:20:06;15.40;;;11.10;;
65463;SDS011;52063;45.110;9.870;2023-07-24T11:22:33;15.20;;;11.43;;
65463;SDS011;52063;45.110;9.870;2023-07-24T11:24:58;16.73;;;11.18;;
65463;SDS011;52063;45.110;9.870;2023-07-24T11:27:24;15.80;;;10.90;;
65463;SDS011;52063;45.110;9.870;2023-07-24T11:29:50;15.10;;;10.93;;
65463;SDS011;52063;45.110;9.870;2023-07-24T11:32:21;14.27;;;10.40;;
65463;SDS011;52063;45.110;9.870;2023-07-24T11:34:48;17.75;;;11.35;;
65463;SDS011;52063;45.110;9.870;2023-07-24T11:37:14;16.10;;;10.88;;
65463;SDS011;52063;45.110;9.870;2023-07-24T11:39:39;15.90;;;10.77;;
65463;SDS011;52063;45.110;9.870;2023-07-24T11:42:05;17.37;;;11.67;;
65463;SDS011;52063;45.110;9.870;2023-07-24T11:44:31;20.52;;;11.55;;
65463;SDS011;52063;45.110;9.870;2023-07-24T11:47:00;19.07;;;10.90;;
65463;SDS011;52063;45.110;9.870;2023-07-24T11:49:27;14.23;;;10.50;;
65463;SDS011;52063;45.110;9.870;2023-07-24T11:51:59;18.00;;;11.70;;
65463;SDS011;52063;45.110;9.870;2023-07-24T11:54:34;22.92;;;11.65;;
65463;SDS011;52063;45.110;9.870;2023-07-24T11:57:00;20.27;;;11.67;;
65463;SDS011;52063;45.110;9.870;2023-07-24T11:59:25;18.58;;;10.93;;
65463;SDS011;52063;45.110;9.870;2023-07-24T12:01:51;18.40;;;10.97;;
65463;SDS011;52063;45.110;9.870;2023-07-24T12:04:17;20.40;;;10.63;;
65463;SDS011;52063;45.110;9.870;2023-07-24T12:06:43;16.45;;;10.38;;
65463;SDS011;52063;45.110;9.870;2023-07-24T12:09:08;15.40;;;9.70;;
65463;SDS011;52063;45.110;9.870;2023-07-24T12:11:42;17.17;;;10.82;;
65463;SDS011;52063;45.110;9.870;2023-07-24T12:14:08;22.40;;;10.00;;
65463;SDS011;52063;45.110;9.870;2023-07-24T12:16:34;13.60;;;9.70;;
65463;SDS011;52063;45.110;9.870;2023-07-24T12:19:00;13.18;;;9.85;;
65463;SDS011;52063;45.110;9.870;2023-07-24T12:21:26;15.53;;;10.07;;
65463;SDS011;52063;45.110;9.870;2023-07-24T12:23:51;16.23;;;10.13;;
65463;SDS011;52063;45.110;9.870;2023-07-24T12:26:17;17.30;;;10.10;;
65463;SDS011;52063;45.110;9.870;2023-07-24T12:28:42;15.43;;;9.90;;
65463;SDS011;52063;45.110;9.870;2023-07-24T12:31:08;21.50;;;10.00;;
65463;SDS011;52063;45.110;9.870;2023-07-24T12:33:34;12.77;;;9.10;;
65463;SDS011;52063;45.110;9.870;2023-07-24T12:35:59;12.80;;;9.23;;
65463;SDS011;52063;45.110;9.870;2023-07-24T12:38:25;16.50;;;10.07;;
65463;SDS011;52063;45.110;9.870;2023-07-24T12:40:50;14.33;;;9.73;;
65463;SDS011;52063;45.110;9.870;2023-07-24T12:43:15;12.67;;;9.00;;
65463;SDS011;52063;45.110;9.870;2023-07-24T12:45:41;13.05;;;9.38;;
65463;SDS011;52063;45.110;9.870;2023-07-24T12:48:06;15.23;;;9.20;;
65463;SDS011;52063;45.110;9.870;2023-07-24T12:50:32;13.90;;;9.07;;
65463;SDS011;52063;45.110;9.870;2023-07-24T12:52:58;13.20;;;9.48;;
65463;SDS011;52063;45.110;9.870;2023-07-24T12:55:24;15.43;;;9.13;;
65463;SDS011;52063;45.110;9.870;2023-07-24T12:57:49;13.27;;;9.50;;
65463;SDS011;52063;45.110;9.870;2023-07-24T13:00:14;13.43;;;9.05;;
65463;SDS011;52063;45.110;9.870;2023-07-24T13:02:40;15.87;;;9.67;;
65463;SDS011;52063;45.110;9.870;2023-07-24T13:05:05;14.13;;;8.83;;
65463;SDS011;52063;45.110;9.870;2023-07-24T13:07:31;15.23;;;9.37;;
65463;SDS011;52063;45.110;9.870;2023-07-24T13:09:57;14.50;;;8.63;;
65463;SDS011;52063;45.110;9.870;2023-07-24T13:12:22;15.98;;;8.85;;
65463;SDS011;52063;45.110;9.870;2023-07-24T13:14:47;14.03;;;9.03;;
65463;SDS011;52063;45.110;9.870;2023-07-24T13:17:13;14.57;;;9.77;;
65463;SDS011;52063;45.110;9.870;2023-07-24T13:19:38;13.27;;;9.70;;
65463;SDS011;52063;45.110;9.870;2023-07-24T13:22:04;11.63;;;9.30;;
65463;SDS011;52063;45.110;9.870;2023-07-24T13:24:30;12.80;;;9.10;;
65463;SDS011;52063;45.110;9.870;2023-07-24T13:26:55;15.02;;;9.63;;
65463;SDS011;52063;45.110;9.870;2023-07-24T13:29:20;14.63;;;9.43;;
65463;SDS011;52063;45.110;9.870;2023-07-24T13:31:46;14.67;;;9.30;;
65463;SDS011;52063;45.110;9.870;2023-07-24T13:34:11;14.70;;;9.40;;
65463;SDS011;52063;45.110;9.870;2023-07-24T13:36:37;15.10;;;9.70;;
65463;SDS011;52063;45.110;9.870;2023-07-24T13:39:02;17.50;;;9.83;;
65463;SDS011;52063;45.110;9.870;2023-07-24T13:41:28;14.27;;;9.40;;
65463;SDS011;52063;45.110;9.870;2023-07-24T13:43:53;13.43;;;9.60;;
65463;SDS011;52063;45.110;9.870;2023-07-24T13:46:19;13.97;;;9.23;;
65463;SDS011;52063;45.110;9.870;2023-07-24T13:48:44;13.30;;;9.47;;
65463;SDS011;52063;45.110;9.870;2023-07-24T13:51:10;13.80;;;8.47;;
65463;SDS011;52063;45.110;9.870;2023-07-24T13:53:36;14.93;;;8.77;;
65463;SDS011;52063;45.110;9.870;2023-07-24T13:56:02;13.40;;;7.83;;
65463;SDS011;52063;45.110;9.870;2023-07-24T13:58:28;12.88;;;8.65;;
65463;SDS011;52063;45.110;9.870;2023-07-24T14:00:53;12.27;;;8.43;;
65463;SDS011;52063;45.110;9.870;2023-07-24T14:03:19;17.88;;;10.00;;
65463;SDS011;52063;45.110;9.870;2023-07-24T14:05:44;31.67;;;16.27;;
65463;SDS011;52063;45.110;9.870;2023-07-24T14:08:10;35.60;;;20.70;;
65463;SDS011;52063;45.110;9.870;2023-07-24T14:10:36;45.08;;;26.48;;
65463;SDS011;52063;45.110;9.870;2023-07-24T14:13:02;30.07;;;17.67;;
65463;SDS011;52063;45.110;9.870;2023-07-24T14:15:29;29.77;;;17.00;;
65463;SDS011;52063;45.110;9.870;2023-07-24T14:17:54;27.67;;;17.77;;